createdAt,value
2022-12-31T00:02:31.965Z,99916.60
2022-12-31T00:05:05.636Z,99915.20
2022-12-31T00:10:13.540Z,99914.00
2022-12-31T00:12:46.598Z,99914.80
2022-12-31T00:15:20.193Z,99908.80
2022-12-31T00:17:53.331Z,99909.80
2022-12-31T00:20:26.441Z,99906.20
2022-12-31T00:22:59.667Z,99897.00
2022-12-31T00:25:32.812Z,99893.40
2022-12-31T00:28:06.413Z,99891.40
2022-12-31T00:30:40.071Z,99899.00
2022-12-31T00:33:13.245Z,99897.60
2022-12-31T00:35:46.299Z,99897.20
2022-12-31T00:38:19.496Z,99892.40
2022-12-31T00:40:52.716Z,99890.40
2022-12-31T00:43:25.773Z,99890.80
2022-12-31T00:45:59.037Z,99896.40
2022-12-31T00:48:32.745Z,99898.60
2022-12-31T00:51:07.991Z,99905.00
2022-12-31T00:53:41.448Z,99902.20
2022-12-31T00:56:18.658Z,99912.00
2022-12-31T00:58:51.848Z,99910.80
2022-12-31T01:01:28.363Z,99913.20
2022-12-31T01:04:06.160Z,99906.60
2022-12-31T01:06:39.810Z,99913.40
2022-12-31T01:09:14.563Z,99925.40
2022-12-31T01:11:47.715Z,99918.60
2022-12-31T01:14:22.516Z,99923.40
2022-12-31T01:16:56.814Z,99922.60
2022-12-31T01:19:31.341Z,99918.00
2022-12-31T01:22:04.421Z,99914.80
2022-12-31T01:24:37.492Z,99912.00
2022-12-31T01:27:10.648Z,99908.60
2022-12-31T01:29:43.675Z,99899.60
2022-12-31T01:32:16.871Z,99893.20
2022-12-31T01:34:50.414Z,99897.20
2022-12-31T01:37:23.659Z,99889.60
2022-12-31T01:39:56.891Z,99894.20
2022-12-31T01:42:30.019Z,99895.00
2022-12-31T01:45:04.092Z,99899.20
2022-12-31T01:47:43.449Z,99907.80
2022-12-31T01:50:22.793Z,99912.20
2022-12-31T01:53:02.066Z,99908.20
2022-12-31T01:55:37.863Z,99921.00
2022-12-31T01:58:15.982Z,99927.40
2022-12-31T02:00:50.329Z,99937.60
2022-12-31T02:03:27.603Z,99940.20
2022-12-31T02:06:08.492Z,99943.20
2022-12-31T02:08:42.577Z,99944.40
2022-12-31T02:11:29.888Z,99944.80
2022-12-31T02:14:08.333Z,99945.20
2022-12-31T02:16:50.355Z,99947.80
2022-12-31T02:19:58.685Z,99947.40
2022-12-31T02:22:57.083Z,99950.20
2022-12-31T02:26:06.317Z,99952.40
2022-12-31T02:29:08.793Z,99955.00
2022-12-31T02:31:47.625Z,99955.60
2022-12-31T02:34:28.663Z,99945.00
2022-12-31T02:37:04.695Z,99950.00
2022-12-31T02:39:39.234Z,99948.80
2022-12-31T02:42:13.019Z,99948.00
2022-12-31T02:44:46.693Z,99949.60
2022-12-31T02:47:32.897Z,99941.60
2022-12-31T02:50:24.866Z,99960.00
2022-12-31T02:53:07.168Z,99966.00
2022-12-31T02:55:46.549Z,99975.20
2022-12-31T02:58:51.730Z,99976.20
2022-12-31T03:01:50.042Z,99966.20
2022-12-31T03:04:34.497Z,99959.40
2022-12-31T03:07:10.955Z,99955.80
2022-12-31T03:09:44.212Z,99953.80
2022-12-31T03:12:35.795Z,99962.60
2022-12-31T03:15:20.469Z,99960.00
2022-12-31T03:17:58.006Z,99963.80
2022-12-31T03:20:52.476Z,99969.60
2022-12-31T03:23:29.581Z,99978.20
2022-12-31T03:26:04.327Z,99983.80
2022-12-31T03:28:37.650Z,99977.60
2022-12-31T03:31:11.693Z,99973.80
2022-12-31T03:33:45.406Z,99971.20
2022-12-31T03:36:19.022Z,99976.40
2022-12-31T03:38:52.988Z,99982.00
2022-12-31T03:41:26.047Z,99980.80
2022-12-31T03:43:59.108Z,99986.80
2022-12-31T03:46:32.272Z,99999.60
2022-12-31T03:49:05.345Z,100006.80
2022-12-31T03:51:38.395Z,100010.60
2022-12-31T03:54:11.434Z,100005.60
2022-12-31T03:56:44.508Z,100002.20
2022-12-31T03:59:17.703Z,100001.40
2022-12-31T04:01:50.838Z,100008.00
2022-12-31T04:04:24.281Z,99997.20
2022-12-31T04:06:57.282Z,99998.00
2022-12-31T04:09:30.430Z,99995.60
2022-12-31T04:12:03.457Z,99989.80
2022-12-31T04:14:36.186Z,99995.00
2022-12-31T04:17:09.438Z,99992.40
2022-12-31T04:19:42.448Z,99984.00
2022-12-31T04:22:15.587Z,99990.00
2022-12-31T04:24:48.955Z,99983.60
2022-12-31T04:27:21.974Z,99974.60
2022-12-31T04:29:55.001Z,99976.00
2022-12-31T04:32:28.125Z,99969.60
2022-12-31T04:35:01.190Z,99967.60
2022-12-31T04:37:34.306Z,99961.80
2022-12-31T04:40:08.656Z,99960.20
2022-12-31T04:42:41.979Z,99967.00
2022-12-31T04:45:16.382Z,99967.60
2022-12-31T04:47:49.518Z,99977.00
2022-12-31T04:50:22.599Z,99984.80
2022-12-31T04:52:55.754Z,99988.20
2022-12-31T04:55:28.784Z,99989.40
2022-12-31T04:58:01.939Z,99989.60
2022-12-31T05:00:35.026Z,99991.20
2022-12-31T05:03:08.212Z,99984.80
2022-12-31T05:05:45.008Z,99987.80
2022-12-31T05:08:18.685Z,99982.20
2022-12-31T05:10:52.476Z,99978.80
2022-12-31T05:13:31.077Z,99976.00
2022-12-31T05:16:07.113Z,99971.80
2022-12-31T05:18:40.408Z,99969.40
2022-12-31T05:21:20.784Z,99970.60
2022-12-31T05:23:53.898Z,99976.40
2022-12-31T05:26:26.968Z,99969.00
2022-12-31T05:29:01.733Z,99976.80
2022-12-31T05:31:34.780Z,99972.80
2022-12-31T05:34:08.194Z,99979.60
2022-12-31T05:36:41.266Z,99985.00
2022-12-31T05:39:14.345Z,99985.00
2022-12-31T05:41:47.798Z,99983.40
2022-12-31T05:44:21.217Z,99991.20
2022-12-31T05:46:54.509Z,99996.00
2022-12-31T05:49:27.556Z,99990.20
2022-12-31T05:52:00.639Z,99983.00
2022-12-31T05:54:33.939Z,99978.40
2022-12-31T05:57:07.955Z,99970.40
2022-12-31T05:59:41.237Z,99983.60
2022-12-31T06:02:14.348Z,99984.60
2022-12-31T06:04:47.529Z,99993.00
2022-12-31T06:07:20.648Z,99988.80
2022-12-31T06:09:53.702Z,99987.00
2022-12-31T06:12:26.931Z,99980.00
2022-12-31T06:15:00.122Z,99981.20
2022-12-31T06:17:33.470Z,99979.80
2022-12-31T06:20:12.835Z,99982.60
2022-12-31T06:22:46.317Z,99984.80
2022-12-31T06:25:19.599Z,99982.20
2022-12-31T06:27:52.695Z,99987.40
2022-12-31T06:30:25.770Z,99997.00
2022-12-31T06:32:59.164Z,99991.60
2022-12-31T06:35:32.188Z,100005.00
2022-12-31T06:38:05.460Z,100003.60
2022-12-31T06:40:40.216Z,100006.00
2022-12-31T06:43:13.367Z,100004.60
2022-12-31T06:45:46.984Z,100010.60
2022-12-31T06:48:20.064Z,100011.00
2022-12-31T06:50:53.125Z,100007.20
2022-12-31T06:53:26.984Z,99998.00
2022-12-31T06:56:06.326Z,100003.20
2022-12-31T06:58:40.898Z,99997.00
2022-12-31T07:01:36.551Z,99994.80
2022-12-31T07:04:35.073Z,99995.00
2022-12-31T07:07:16.955Z,100004.60
2022-12-31T07:09:58.115Z,100010.60
2022-12-31T07:12:53.738Z,100013.20
2022-12-31T07:15:52.772Z,100019.20
2022-12-31T07:18:36.949Z,100023.60
2022-12-31T07:21:14.795Z,100025.00
2022-12-31T07:23:49.349Z,100024.80
2022-12-31T07:26:32.991Z,100021.80
2022-12-31T07:29:15.911Z,100019.60
2022-12-31T07:32:02.932Z,100034.20
2022-12-31T07:34:48.821Z,100030.80
2022-12-31T07:37:32.305Z,100027.40
2022-12-31T07:40:15.219Z,100033.20
2022-12-31T07:43:05.856Z,100024.80
2022-12-31T07:45:48.374Z,100024.80
2022-12-31T07:48:29.256Z,100032.40
2022-12-31T07:51:03.815Z,100034.00
2022-12-31T07:53:38.160Z,100031.00
2022-12-31T07:56:12.831Z,100029.20
2022-12-31T07:59:02.592Z,100022.20
2022-12-31T08:01:45.440Z,100031.40
2022-12-31T08:04:29.392Z,100029.00
2022-12-31T08:07:18.880Z,100032.60
2022-12-31T08:10:02.454Z,100051.40
2022-12-31T08:12:39.176Z,100048.80
2022-12-31T08:15:28.490Z,100040.20
2022-12-31T08:18:04.760Z,100045.00
2022-12-31T08:20:45.706Z,100046.80
2022-12-31T08:23:30.219Z,100047.60
2022-12-31T08:26:17.286Z,100043.40
2022-12-31T08:29:08.790Z,100045.60
2022-12-31T08:31:53.522Z,100046.20
2022-12-31T08:34:35.572Z,100045.40
2022-12-31T08:37:15.285Z,100037.60
2022-12-31T08:40:08.727Z,100051.80
2022-12-31T08:42:52.969Z,100051.00
2022-12-31T08:45:33.475Z,100050.00
2022-12-31T08:48:11.320Z,100047.60
2022-12-31T08:50:45.590Z,100053.20
2022-12-31T08:53:20.035Z,100040.80
2022-12-31T08:56:06.844Z,100037.80
2022-12-31T09:46:31.481Z,100029.00
2022-12-31T09:49:51.966Z,100026.40
2022-12-31T09:52:41.390Z,100027.60
2022-12-31T09:55:34.899Z,100022.60
2022-12-31T09:58:25.377Z,100021.20
2022-12-31T10:01:09.262Z,100020.80
2022-12-31T10:04:16.367Z,100014.00
2022-12-31T10:07:02.121Z,100019.20
2022-12-31T10:09:56.217Z,100031.00
2022-12-31T10:13:24.713Z,100032.20
2022-12-31T10:16:42.043Z,100019.80
2022-12-31T10:19:53.276Z,100015.20
2022-12-31T10:23:00.459Z,100011.80
2022-12-31T10:25:57.699Z,100007.00
2022-12-31T10:28:46.042Z,100009.60
2022-12-31T10:31:45.448Z,100003.20
2022-12-31T10:34:28.381Z,99994.00
2022-12-31T10:37:10.293Z,99998.40
2022-12-31T10:40:00.998Z,99995.40
2022-12-31T10:43:21.979Z,99993.40
2022-12-31T10:46:45.984Z,99997.60
2022-12-31T10:50:06.053Z,99987.00
2022-12-31T10:53:38.961Z,99985.80
2022-12-31T10:56:52.282Z,99982.20
2022-12-31T11:00:02.961Z,99984.60
2022-12-31T11:03:15.894Z,99979.00
2022-12-31T11:06:42.304Z,99983.80
2022-12-31T11:10:00.043Z,99995.20
2022-12-31T11:13:08.905Z,99984.00
2022-12-31T11:16:11.284Z,99982.80
2022-12-31T11:18:54.372Z,99984.00
2022-12-31T11:21:52.491Z,99994.20
2022-12-31T11:24:41.506Z,99983.60
2022-12-31T11:27:35.204Z,99981.40
2022-12-31T11:30:23.964Z,99978.20
2022-12-31T11:33:16.205Z,99969.40
2022-12-31T11:36:12.937Z,99970.80
2022-12-31T11:38:55.020Z,99971.60
2022-12-31T11:41:36.808Z,99967.40
2022-12-31T11:44:30.802Z,99964.20
2022-12-31T11:47:28.138Z,99971.20
2022-12-31T11:50:22.149Z,99963.00
2022-12-31T11:53:15.800Z,99964.80
2022-12-31T11:56:01.705Z,99962.80
2022-12-31T11:58:35.242Z,99959.80
2022-12-31T12:01:17.573Z,99958.40
2022-12-31T12:03:51.225Z,99961.00
2022-12-31T12:06:28.942Z,99960.20
2022-12-31T12:09:09.196Z,99959.60
2022-12-31T12:11:43.679Z,99960.40
2022-12-31T12:14:35.590Z,99954.60
2022-12-31T12:17:16.746Z,99956.60
2022-12-31T12:19:56.927Z,99959.00
2022-12-31T12:22:32.381Z,99967.80
2022-12-31T12:25:20.797Z,99966.00
2022-12-31T12:27:54.302Z,99967.20
2022-12-31T12:30:30.050Z,99973.00
2022-12-31T12:33:05.120Z,99980.80
2022-12-31T12:35:39.641Z,99986.80
2022-12-31T12:38:19.420Z,99976.80
2022-12-31T12:41:02.612Z,99977.40
2022-12-31T12:43:38.146Z,99976.40
2022-12-31T12:46:22.929Z,99980.60
2022-12-31T12:49:00.120Z,99975.80
2022-12-31T12:51:54.307Z,99981.60
2022-12-31T12:54:43.714Z,99983.20
2022-12-31T12:57:25.747Z,99988.80
2022-12-31T13:00:19.452Z,99986.00
2022-12-31T13:03:17.421Z,99983.00
2022-12-31T13:06:07.583Z,99977.60
2022-12-31T13:09:04.541Z,99985.00
2022-12-31T13:11:50.973Z,99978.60
2022-12-31T13:14:35.460Z,99981.00
2022-12-31T13:17:31.513Z,99990.00
2022-12-31T13:20:16.487Z,99988.20
2022-12-31T13:22:53.485Z,99996.80
2022-12-31T13:25:37.284Z,100001.00
2022-12-31T13:28:16.617Z,99990.40
2022-12-31T13:30:53.847Z,99997.40
2022-12-31T13:33:30.879Z,99992.20
2022-12-31T14:43:26.470Z,100023.60
2022-12-31T14:46:11.279Z,100027.80
2022-12-31T14:49:00.750Z,100032.00
2022-12-31T14:51:36.441Z,100036.40
2022-12-31T14:54:29.194Z,100036.00
2022-12-31T14:57:13.054Z,100031.60
2022-12-31T14:59:58.388Z,100023.40
2022-12-31T15:02:34.927Z,100025.20
2022-12-31T15:05:21.957Z,100029.60
2022-12-31T15:08:20.857Z,100025.80
2022-12-31T15:11:14.940Z,100026.40
2022-12-31T15:14:16.655Z,100027.60
2022-12-31T15:16:58.967Z,100026.00
2022-12-31T15:20:14.952Z,100033.60
2022-12-31T15:22:52.845Z,100040.00
2022-12-31T15:25:40.822Z,100043.00
2022-12-31T15:28:35.370Z,100032.80
2022-12-31T15:31:20.031Z,100035.60
2022-12-31T15:34:05.487Z,100037.20
2022-12-31T15:36:40.069Z,100041.40
2022-12-31T15:39:38.796Z,100037.80
2022-12-31T15:42:50.037Z,100052.40
2022-12-31T15:45:29.340Z,100070.20
2022-12-31T15:48:08.141Z,100069.20
2022-12-31T15:50:43.328Z,100074.40
2022-12-31T15:53:30.925Z,100073.20
2022-12-31T15:56:05.445Z,100076.60
2022-12-31T15:58:40.151Z,100080.00
2022-12-31T16:01:20.983Z,100075.20
2022-12-31T16:04:02.012Z,100086.20
2022-12-31T16:17:36.690Z,100095.60
2022-12-31T16:20:31.154Z,100099.40
2022-12-31T16:23:17.380Z,100114.40
2022-12-31T16:25:51.805Z,100115.20
2022-12-31T16:28:30.061Z,100114.00
2022-12-31T16:31:06.969Z,100109.80
2022-12-31T16:33:43.256Z,100108.80
2022-12-31T16:36:25.088Z,100115.40
2022-12-31T16:39:24.687Z,100122.00
2022-12-31T16:42:21.131Z,100121.40
2022-12-31T16:52:46.042Z,100133.20
2022-12-31T16:55:23.585Z,100134.00
2022-12-31T16:58:02.132Z,100132.60
2022-12-31T17:00:36.570Z,100135.80
2022-12-31T17:03:18.724Z,100136.00
2022-12-31T17:06:14.042Z,100132.60
2022-12-31T17:08:50.793Z,100130.40
2022-12-31T17:11:33.306Z,100121.80
2022-12-31T17:14:16.663Z,100138.40
2022-12-31T17:17:05.233Z,100134.40
2022-12-31T17:19:45.517Z,100141.20
2022-12-31T17:22:34.311Z,100141.60
2022-12-31T17:25:21.749Z,100143.40
2022-12-31T17:28:00.821Z,100145.60
2022-12-31T17:30:46.274Z,100153.60
2022-12-31T17:33:38.201Z,100147.40
2022-12-31T17:36:25.936Z,100151.40
2022-12-31T17:39:11.565Z,100151.80
2022-12-31T17:41:47.746Z,100153.00
2022-12-31T17:44:25.020Z,100154.80
2022-12-31T17:46:58.998Z,100156.20
2022-12-31T17:49:33.735Z,100162.40
2022-12-31T17:52:07.612Z,100165.20
2022-12-31T17:54:41.673Z,100157.80
2022-12-31T17:57:27.803Z,100162.20
2022-12-31T18:00:00.962Z,100159.20
2022-12-31T18:02:34.078Z,100159.60
2022-12-31T18:05:17.822Z,100165.60
2022-12-31T18:07:50.991Z,100174.00
2022-12-31T18:10:26.102Z,100173.20
2022-12-31T18:13:01.691Z,100177.80
2022-12-31T18:15:34.853Z,100184.60
2022-12-31T18:18:24.702Z,100180.00
2022-12-31T18:21:02.732Z,100187.80
2022-12-31T18:23:39.583Z,100189.20
2022-12-31T18:26:16.305Z,100188.00
2022-12-31T18:28:50.514Z,100191.40
2022-12-31T18:31:27.045Z,100186.60
2022-12-31T18:34:01.755Z,100187.20
2022-12-31T18:36:35.015Z,100180.20
2022-12-31T18:39:08.434Z,100183.20
2022-12-31T18:41:46.892Z,100188.40
2022-12-31T18:44:20.572Z,100189.60
2022-12-31T18:46:53.755Z,100186.60
2022-12-31T18:49:28.027Z,100180.80
2022-12-31T18:52:01.036Z,100176.60
2022-12-31T18:54:34.117Z,100173.60
2022-12-31T18:57:07.099Z,100179.80
2022-12-31T18:59:40.354Z,100171.00
2022-12-31T19:02:19.919Z,100170.60
2022-12-31T19:04:53.391Z,100173.20
2022-12-31T19:07:26.780Z,100174.60
2022-12-31T19:09:59.816Z,100168.40
2022-12-31T19:12:32.900Z,100172.60
2022-12-31T19:15:12.589Z,100175.00
2022-12-31T19:17:45.646Z,100184.00
2022-12-31T19:20:18.918Z,100186.00
2022-12-31T19:22:52.033Z,100181.20
2022-12-31T19:25:27.629Z,100176.40
2022-12-31T19:28:01.087Z,100178.00
2022-12-31T19:30:36.720Z,100178.40
2022-12-31T19:33:09.923Z,100184.80
2022-12-31T19:35:43.111Z,100191.40
2022-12-31T19:38:23.498Z,100179.60
2022-12-31T19:40:57.115Z,100185.60
2022-12-31T19:43:30.617Z,100189.20
2022-12-31T19:46:06.853Z,100185.00
2022-12-31T19:48:39.950Z,100183.60
2022-12-31T19:51:17.350Z,100175.60
2022-12-31T19:53:51.012Z,100181.00
2022-12-31T19:56:24.405Z,100191.40
2022-12-31T19:58:57.421Z,100203.20
2022-12-31T20:01:30.556Z,100201.20
2022-12-31T20:04:03.800Z,100197.20
2022-12-31T20:06:36.842Z,100193.80
2022-12-31T20:09:10.331Z,100195.60
2022-12-31T20:11:43.440Z,100202.40
2022-12-31T20:14:16.534Z,100201.40
2022-12-31T20:16:49.661Z,100198.40
2022-12-31T20:19:22.859Z,100198.40
2022-12-31T20:21:55.949Z,100200.40
2022-12-31T20:24:28.959Z,100203.20
2022-12-31T20:27:01.968Z,100199.60
2022-12-31T20:29:35.020Z,100202.80
2022-12-31T20:32:08.825Z,100202.40
2022-12-31T20:34:41.832Z,100204.40
2022-12-31T20:37:14.956Z,100212.60
2022-12-31T20:39:47.918Z,100214.60
2022-12-31T20:42:20.962Z,100218.20
2022-12-31T20:44:54.005Z,100220.40
2022-12-31T20:47:27.056Z,100221.40
2022-12-31T20:50:15.473Z,100216.60
2022-12-31T20:52:48.656Z,100212.60
2022-12-31T20:55:21.961Z,100204.20
2022-12-31T20:57:55.739Z,100200.60
2022-12-31T21:00:29.179Z,100195.80
2022-12-31T21:03:14.435Z,100200.00
2022-12-31T21:05:56.833Z,100194.20
2022-12-31T21:08:34.747Z,100195.40
2022-12-31T21:11:28.920Z,100192.80
2022-12-31T21:14:02.991Z,100197.80
2022-12-31T21:16:36.183Z,100197.80
2022-12-31T21:19:10.138Z,100202.00
2022-12-31T21:21:43.830Z,100200.40
2022-12-31T21:24:23.258Z,100198.00
2022-12-31T21:26:59.007Z,100183.40
2022-12-31T21:29:34.714Z,100191.60
2022-12-31T21:32:09.346Z,100189.80
2022-12-31T21:34:42.393Z,100187.00
2022-12-31T21:37:15.354Z,100185.60
2022-12-31T21:39:48.344Z,100189.80
2022-12-31T21:42:21.700Z,100198.80
2022-12-31T21:44:55.083Z,100193.60
2022-12-31T21:47:47.712Z,100188.00
2022-12-31T21:50:21.362Z,100192.20
2022-12-31T21:52:54.599Z,100189.40
2022-12-31T21:55:45.219Z,100200.80
2022-12-31T21:58:28.071Z,100201.80
2022-12-31T22:01:20.248Z,100196.40
2022-12-31T22:03:53.642Z,100201.00
2022-12-31T22:06:27.908Z,100206.40
2022-12-31T22:09:01.291Z,100205.80
2022-12-31T22:11:34.390Z,100208.40
2022-12-31T22:14:07.460Z,100204.60
2022-12-31T22:16:40.544Z,100211.00
2022-12-31T22:19:13.635Z,100204.60
2022-12-31T22:21:46.840Z,100200.40
2022-12-31T22:24:20.041Z,100202.20
2022-12-31T22:26:55.758Z,100195.00
2022-12-31T22:29:30.246Z,100197.60
2022-12-31T22:32:03.334Z,100198.40
2022-12-31T22:34:37.098Z,100199.80
2022-12-31T22:37:35.723Z,100200.20
2022-12-31T22:40:03.327Z,100196.40
2022-12-31T22:42:36.364Z,100206.40
2022-12-31T22:45:11.517Z,100209.40
2022-12-31T22:47:44.712Z,100200.80
2022-12-31T22:50:18.031Z,100205.60
2022-12-31T22:52:51.037Z,100204.00
2022-12-31T22:55:24.301Z,100205.80
2022-12-31T22:57:57.421Z,100212.60
2022-12-31T23:00:43.821Z,100207.80
2022-12-31T23:03:16.958Z,100208.60
2022-12-31T23:05:52.893Z,100206.20
2022-12-31T23:08:26.476Z,100202.60
2022-12-31T23:11:05.839Z,100203.60
2022-12-31T23:14:01.556Z,100207.60
2022-12-31T23:16:52.391Z,100209.60
2022-12-31T23:19:43.229Z,100213.20
2022-12-31T23:22:33.423Z,100199.60
2022-12-31T23:25:07.306Z,100207.80
2022-12-31T23:27:40.369Z,100194.00
2022-12-31T23:30:15.489Z,100197.20
2022-12-31T23:32:48.515Z,100188.00
2022-12-31T23:35:21.840Z,100188.00
2022-12-31T23:37:54.851Z,100187.00
2022-12-31T23:40:34.506Z,100186.80
2022-12-31T23:43:09.621Z,100182.00
2022-12-31T23:45:42.693Z,100181.80
2022-12-31T23:48:15.663Z,100187.20
2022-12-31T23:50:54.479Z,100190.80
2022-12-31T23:53:27.931Z,100197.40
2022-12-31T23:56:13.051Z,100194.40
2022-12-31T23:58:49.383Z,100196.80
